Clinton, IN (47842)

20:20 EDT le 30 juillet 2016 (GMT -0400)
Lyford, Indiana | | Change Station

Alt. 528 ft 39.64 °N, 87.37 °W | Updated 28 seconds ago

Clear
Ciel dégagé
80.2 ° F
Paraît 82 ° F
N
0.0
Vent Variable Vent de SSO
Gusts 0.0 mph

Aujourd'hui
Haut(e) -- | Bas -- ° F
--% Risque de précip.
Hier
Haut(e) -- | Bas -- ° F
Precip. -- pouce
Pression 29.95 pouce
Visibilité 10.0 Miles terrestres
Nuages Ciel dégagé
indice de chaleur 82 ° F
Point de rosée 65 ° F
Humidité 60%
Précipitations 0.00 pouce
Profondeur de la couche neigeuse Non disponible.
6:47 AM 9:04 PM
Lune descendante, 10% visible
METAR KPRG 310015Z AUTO 00000KT 10SM CLR 25/21 A2995 RMK AO2 T02540206
Pression 29.95 pouce
Visibilité 10.0 Miles terrestres
Nuages Ciel dégagé
indice de chaleur 82 ° F
Point de rosée 65 ° F
Humidité 60%
Précipitations 0.00 pouce
Profondeur de la couche neigeuse Non disponible.
6:47 AM 9:04 PM
Lune descendante, 10% visible
METAR KPRG 310015Z AUTO 00000KT 10SM CLR 25/21 A2995 RMK AO2 T02540206

10-Day Weather Forecast

Almanac

Astronomie

Jul. 30, 2016 Lever Coucher
Temps réel
Crépuscule civil
Crépuscule nautique
Crépuscule astronomique
Lune
Durée de lumière visible
Longueur du jour
Tomorrow will be .
, % of the Moon is Illuminated

Extrêmes aujourd'hui

State Highs State Lows

Community

WunderPhotos

Upload Photos

1,928,682 Photos téléchargées !

WunderBlog® & News

Nearby

Qualité de l'air

  Qualité de l'air Indice de la qualité de l'air Polluant
Not available.

Épaisseur de neige

Station Depth Altitude

Activité sismique

Ville Distance Mag. Time & Date
Minimum magnitude displayed is 2.5.

Températures des eaux côtières

Lieu Température

Stations

Stations météo à proximité

Emplacement de la station Température Refroidissement éolien Point de rosée Humidité Vent Precip. Alt. Mise à jour Type
                   

Watches & Warnings

There are currently no watches in effect.